>
METAR
Output Produced by Metar
found at http://aviationweather.gov/adds/metars/
 

Data at: 1329 UTC 09 Dec 2021

METAR for:WIII (Jakarta Intl, JB, ID)
Text:WIII 091300Z 25007G18KT 240V300 2500 TSRA SCT014CB BKN016 24/24 Q1011 TEMPO FM1300 29015G25KT 2000 +TSRA CB OVER THE FIELD
Temperature: 24.0°C ( 75°F)
Dewpoint: 24.0°C ( 75°F) [RH = 100%]
Pressure (altimeter):29.85 inches Hg (1011.0 mb)
Winds:from the WSW (250 degrees) at 8 MPH (7 knots; 3.6 m/s) gusting to 21 MPH (18 knots; 9.3 m/s)
Visibility: 1.55 sm ( 2.49 km)
Ceiling:1600 feet AGL
Clouds: scattered clouds at 1400 feet AGL, broken clouds at 1600 feet AGL
Weather:TSRA (rain associated with thunderstorm(s))